sensor_id;sensor_type;location;lat;lon;timestamp;P1;P2;P0
51320;PMS5003;38732;49.556;6.286;2023-02-28T00:01:31;0.00;0.00;0.00
51320;PMS5003;38732;49.556;6.286;2023-02-28T00:04:00;0.40;0.40;0.00
51320;PMS5003;38732;49.556;6.286;2023-02-28T00:06:28;0.25;0.25;0.00
51320;PMS5003;38732;49.556;6.286;2023-02-28T00:08:57;3.00;1.00;0.00
51320;PMS5003;38732;49.556;6.286;2023-02-28T00:11:25;1.00;1.00;0.50
51320;PMS5003;38732;49.556;6.286;2023-02-28T00:13:53;3.00;0.00;0.00
51320;PMS5003;38732;49.556;6.286;2023-02-28T00:16:21;2.25;0.50;0.00
51320;PMS5003;38732;49.556;6.286;2023-02-28T00:18:50;0.00;0.00;0.00
51320;PMS5003;38732;49.556;6.286;2023-02-28T00:21:19;3.00;3.00;0.75
51320;PMS5003;38732;49.556;6.286;2023-02-28T00:23:47;1.00;1.00;0.00
51320;PMS5003;38732;49.556;6.286;2023-02-28T00:26:16;1.00;1.00;0.00
51320;PMS5003;38732;49.556;6.286;2023-02-28T00:28:44;4.50;1.00;0.00
51320;PMS5003;38732;49.556;6.286;2023-02-28T00:31:12;3.50;3.00;0.50
51320;PMS5003;38732;49.556;6.286;2023-02-28T00:33:40;3.00;1.00;0.00
51320;PMS5003;38732;49.556;6.286;2023-02-28T00:36:09;0.00;0.00;0.00
51320;PMS5003;38732;49.556;6.286;2023-02-28T00:38:40;0.80;0.80;0.20
51320;PMS5003;38732;49.556;6.286;2023-02-28T00:41:08;0.20;0.20;0.00
51320;PMS5003;38732;49.556;6.286;2023-02-28T00:43:37;0.00;0.00;0.00
51320;PMS5003;38732;49.556;6.286;2023-02-28T00:46:07;0.60;0.60;0.00
51320;PMS5003;38732;49.556;6.286;2023-02-28T00:48:35;1.00;1.00;0.00
51320;PMS5003;38732;49.556;6.286;2023-02-28T00:51:04;0.00;0.00;0.00
51320;PMS5003;38732;49.556;6.286;2023-02-28T00:53:32;3.00;3.00;0.00
51320;PMS5003;38732;49.556;6.286;2023-02-28T00:56:01;2.50;1.00;0.25
51320;PMS5003;38732;49.556;6.286;2023-02-28T00:58:29;1.00;1.00;0.00
51320;PMS5003;38732;49.556;6.286;2023-02-28T01:00:57;4.00;1.00;0.00
51320;PMS5003;38732;49.556;6.286;2023-02-28T01:03:25;2.50;0.75;0.00
51320;PMS5003;38732;49.556;6.286;2023-02-28T01:05:54;0.50;0.00;0.00
51320;PMS5003;38732;49.556;6.286;2023-02-28T01:08:22;1.00;1.00;1.00
51320;PMS5003;38732;49.556;6.286;2023-02-28T01:10:50;0.75;0.75;0.00
51320;PMS5003;38732;49.556;6.286;2023-02-28T01:13:19;1.50;1.50;0.00
51320;PMS5003;38732;49.556;6.286;2023-02-28T01:15:51;1.00;1.00;0.00
51320;PMS5003;38732;49.556;6.286;2023-02-28T01:18:22;1.00;1.00;0.00
51320;PMS5003;38732;49.556;6.286;2023-02-28T01:20:50;1.00;1.00;0.00
51320;PMS5003;38732;49.556;6.286;2023-02-28T01:23:20;3.00;0.75;0.50
51320;PMS5003;38732;49.556;6.286;2023-02-28T01:25:50;3.40;0.80;0.00
51320;PMS5003;38732;49.556;6.286;2023-02-28T01:28:18;2.00;1.80;0.80
51320;PMS5003;38732;49.556;6.286;2023-02-28T01:30:47;0.00;0.00;0.00
51320;PMS5003;38732;49.556;6.286;2023-02-28T01:33:17;0.60;0.60;0.00
51320;PMS5003;38732;49.556;6.286;2023-02-28T01:35:45;1.75;0.00;0.00
51320;PMS5003;38732;49.556;6.286;2023-02-28T01:38:13;2.50;1.00;0.00
51320;PMS5003;38732;49.556;6.286;2023-02-28T01:40:42;2.00;0.75;0.25
51320;PMS5003;38732;49.556;6.286;2023-02-28T01:43:19;2.00;0.25;0.00
51320;PMS5003;38732;49.556;6.286;2023-02-28T01:45:54;0.00;0.00;0.00
51320;PMS5003;38732;49.556;6.286;2023-02-28T01:48:25;1.00;1.00;0.00
51320;PMS5003;38732;49.556;6.286;2023-02-28T01:50:59;0.80;0.80;0.00
51320;PMS5003;38732;49.556;6.286;2023-02-28T01:53:34;0.00;0.00;0.00
51320;PMS5003;38732;49.556;6.286;2023-02-28T01:56:05;0.00;0.00;0.00
51320;PMS5003;38732;49.556;6.286;2023-02-28T01:58:36;1.00;0.00;0.00
51320;PMS5003;38732;49.556;6.286;2023-02-28T02:01:05;0.75;0.25;0.00
51320;PMS5003;38732;49.556;6.286;2023-02-28T02:03:33;1.00;0.00;0.00
51320;PMS5003;38732;49.556;6.286;2023-02-28T02:06:03;1.60;0.60;0.00
51320;PMS5003;38732;49.556;6.286;2023-02-28T02:08:31;1.00;1.00;0.75
51320;PMS5003;38732;49.556;6.286;2023-02-28T02:11:00;0.50;0.50;0.00
51320;PMS5003;38732;49.556;6.286;2023-02-28T02:16:23;1.60;1.60;0.60
51320;PMS5003;38732;49.556;6.286;2023-02-28T02:21:42;1.00;1.00;0.60
51320;PMS5003;38732;49.556;6.286;2023-02-28T02:24:45;0.60;0.60;0.00
51320;PMS5003;38732;49.556;6.286;2023-02-28T02:27:27;1.00;1.00;1.00
51320;PMS5003;38732;49.556;6.286;2023-02-28T02:30:27;0.00;0.00;0.00
51320;PMS5003;38732;49.556;6.286;2023-02-28T02:33:18;0.60;0.60;0.00
51320;PMS5003;38732;49.556;6.286;2023-02-28T02:36:18;3.40;0.00;0.00
51320;PMS5003;38732;49.556;6.286;2023-02-28T02:39:03;3.60;3.00;1.00
51320;PMS5003;38732;49.556;6.286;2023-02-28T02:44:53;3.60;1.00;1.00
51320;PMS5003;38732;49.556;6.286;2023-02-28T02:47:34;3.00;3.00;0.00
51320;PMS5003;38732;49.556;6.286;2023-02-28T02:50:07;1.00;1.00;1.00
51320;PMS5003;38732;49.556;6.286;2023-02-28T02:52:42;1.40;1.40;0.00
51320;PMS5003;38732;49.556;6.286;2023-02-28T02:55:16;2.60;2.60;1.00
51320;PMS5003;38732;49.556;6.286;2023-02-28T02:57:51;3.40;1.00;0.40
51320;PMS5003;38732;49.556;6.286;2023-02-28T03:00:26;0.40;0.40;0.00
51320;PMS5003;38732;49.556;6.286;2023-02-28T03:02:58;1.40;1.40;1.00
51320;PMS5003;38732;49.556;6.286;2023-02-28T03:08:17;1.00;1.00;0.20
51320;PMS5003;38732;49.556;6.286;2023-02-28T03:10:46;1.00;1.00;1.00
51320;PMS5003;38732;49.556;6.286;2023-02-28T03:21:24;2.20;2.20;0.20
51320;PMS5003;38732;49.556;6.286;2023-02-28T03:26:33;0.00;0.00;0.00
51320;PMS5003;38732;49.556;6.286;2023-02-28T03:31:44;0.80;0.80;0.00
51320;PMS5003;38732;49.556;6.286;2023-02-28T03:34:32;1.00;1.00;0.20
51320;PMS5003;38732;49.556;6.286;2023-02-28T03:37:05;0.80;0.80;0.00
51320;PMS5003;38732;49.556;6.286;2023-02-28T03:39:39;2.60;2.60;0.40
51320;PMS5003;38732;49.556;6.286;2023-02-28T03:42:17;1.80;1.00;0.20
51320;PMS5003;38732;49.556;6.286;2023-02-28T03:50:26;0.20;0.20;0.00
51320;PMS5003;38732;49.556;6.286;2023-02-28T03:53:07;1.40;0.20;0.00
51320;PMS5003;38732;49.556;6.286;2023-02-28T03:56:01;0.20;0.20;0.00
51320;PMS5003;38732;49.556;6.286;2023-02-28T03:58:38;1.00;1.00;1.00
51320;PMS5003;38732;49.556;6.286;2023-02-28T04:01:09;1.00;0.00;0.00
51320;PMS5003;38732;49.556;6.286;2023-02-28T04:03:44;1.40;1.40;0.20
51320;PMS5003;38732;49.556;6.286;2023-02-28T04:06:14;1.00;1.00;0.00
51320;PMS5003;38732;49.556;6.286;2023-02-28T04:08:46;3.40;0.80;0.20
51320;PMS5003;38732;49.556;6.286;2023-02-28T04:13:42;0.60;0.60;0.00
51320;PMS5003;38732;49.556;6.286;2023-02-28T04:16:11;1.00;1.00;0.00
51320;PMS5003;38732;49.556;6.286;2023-02-28T04:18:39;0.50;0.50;0.00
51320;PMS5003;38732;49.556;6.286;2023-02-28T04:21:08;3.00;1.50;0.50
51320;PMS5003;38732;49.556;6.286;2023-02-28T04:23:37;1.00;1.00;0.00
51320;PMS5003;38732;49.556;6.286;2023-02-28T04:26:05;3.00;1.00;0.75
51320;PMS5003;38732;49.556;6.286;2023-02-28T04:28:34;2.00;2.00;0.75
51320;PMS5003;38732;49.556;6.286;2023-02-28T04:31:04;0.80;0.80;0.00
51320;PMS5003;38732;49.556;6.286;2023-02-28T04:33:33;1.00;1.00;0.00
51320;PMS5003;38732;49.556;6.286;2023-02-28T04:36:05;0.75;0.75;0.00
51320;PMS5003;38732;49.556;6.286;2023-02-28T04:38:35;3.20;1.00;0.80
51320;PMS5003;38732;49.556;6.286;2023-02-28T04:41:05;3.00;2.60;0.60
51320;PMS5003;38732;49.556;6.286;2023-02-28T04:43:33;2.50;2.50;0.50
51320;PMS5003;38732;49.556;6.286;2023-02-28T04:46:03;3.25;3.00;1.00
51320;PMS5003;38732;49.556;6.286;2023-02-28T04:48:33;6.80;1.00;0.20
51320;PMS5003;38732;49.556;6.286;2023-02-28T04:51:06;4.40;2.20;0.80
51320;PMS5003;38732;49.556;6.286;2023-02-28T04:53:38;2.60;1.00;0.60
51320;PMS5003;38732;49.556;6.286;2023-02-28T04:56:08;1.00;1.00;0.00
51320;PMS5003;38732;49.556;6.286;2023-02-28T04:58:39;2.20;1.00;0.00
51320;PMS5003;38732;49.556;6.286;2023-02-28T05:01:45;1.00;0.25;0.00
51320;PMS5003;38732;49.556;6.286;2023-02-28T05:04:03;2.50;2.50;1.00
51320;PMS5003;38732;49.556;6.286;2023-02-28T05:06:32;3.40;1.40;0.40
51320;PMS5003;38732;49.556;6.286;2023-02-28T05:09:01;3.00;3.00;1.00
51320;PMS5003;38732;49.556;6.286;2023-02-28T05:11:30;3.00;1.00;0.00
51320;PMS5003;38732;49.556;6.286;2023-02-28T05:14:00;4.00;4.00;3.00
51320;PMS5003;38732;49.556;6.286;2023-02-28T05:16:32;2.20;2.20;1.00
51320;PMS5003;38732;49.556;6.286;2023-02-28T05:19:01;4.75;4.75;3.00
51320;PMS5003;38732;49.556;6.286;2023-02-28T05:21:36;3.75;3.75;1.00
51320;PMS5003;38732;49.556;6.286;2023-02-28T05:24:09;6.00;3.60;2.20
51320;PMS5003;38732;49.556;6.286;2023-02-28T05:26:40;3.00;3.00;1.00
51320;PMS5003;38732;49.556;6.286;2023-02-28T05:29:10;3.60;3.60;1.40
51320;PMS5003;38732;49.556;6.286;2023-02-28T05:31:38;0.25;0.25;0.00
51320;PMS5003;38732;49.556;6.286;2023-02-28T05:34:06;4.00;4.00;3.00
51320;PMS5003;38732;49.556;6.286;2023-02-28T05:36:36;7.00;5.75;3.00
51320;PMS5003;38732;49.556;6.286;2023-02-28T05:39:05;3.20;2.60;1.00
51320;PMS5003;38732;49.556;6.286;2023-02-28T05:41:34;3.80;3.80;1.00
51320;PMS5003;38732;49.556;6.286;2023-02-28T05:44:02;2.00;2.00;0.25
51320;PMS5003;38732;49.556;6.286;2023-02-28T05:46:31;4.00;4.00;3.00
51320;PMS5003;38732;49.556;6.286;2023-02-28T05:48:59;1.50;1.50;1.00
51320;PMS5003;38732;49.556;6.286;2023-02-28T05:51:27;2.33;2.33;1.00
51320;PMS5003;38732;49.556;6.286;2023-02-28T05:53:58;3.00;3.00;1.00
51320;PMS5003;38732;49.556;6.286;2023-02-28T05:56:27;4.00;4.00;1.00
51320;PMS5003;38732;49.556;6.286;2023-02-28T05:58:56;3.00;2.00;1.00
51320;PMS5003;38732;49.556;6.286;2023-02-28T06:01:34;6.50;4.50;1.00
51320;PMS5003;38732;49.556;6.286;2023-02-28T06:04:13;1.80;1.80;0.00
51320;PMS5003;38732;49.556;6.286;2023-02-28T06:06:43;10.00;6.80;3.20
51320;PMS5003;38732;49.556;6.286;2023-02-28T06:09:15;11.80;5.40;3.20
51320;PMS5003;38732;49.556;6.286;2023-02-28T06:11:44;6.50;4.50;2.50
51320;PMS5003;38732;49.556;6.286;2023-02-28T06:14:16;3.50;3.50;1.50
51320;PMS5003;38732;49.556;6.286;2023-02-28T06:16:46;7.25;6.50;3.50
51320;PMS5003;38732;49.556;6.286;2023-02-28T06:19:14;3.67;3.67;1.00
51320;PMS5003;38732;49.556;6.286;2023-02-28T06:21:43;2.00;2.00;0.00
51320;PMS5003;38732;49.556;6.286;2023-02-28T06:24:11;7.75;6.25;1.00
51320;PMS5003;38732;49.556;6.286;2023-02-28T06:26:39;5.50;3.50;0.75
51320;PMS5003;38732;49.556;6.286;2023-02-28T06:29:07;3.50;3.00;1.00
51320;PMS5003;38732;49.556;6.286;2023-02-28T06:31:35;8.50;6.75;3.00
51320;PMS5003;38732;49.556;6.286;2023-02-28T06:34:04;6.25;3.00;0.50
51320;PMS5003;38732;49.556;6.286;2023-02-28T06:36:32;6.50;3.50;1.00
51320;PMS5003;38732;49.556;6.286;2023-02-28T06:39:00;6.50;5.00;3.00
51320;PMS5003;38732;49.556;6.286;2023-02-28T06:41:29;5.00;4.00;1.00
51320;PMS5003;38732;49.556;6.286;2023-02-28T06:43:57;5.75;5.25;2.75
51320;PMS5003;38732;49.556;6.286;2023-02-28T06:46:25;3.50;3.00;0.50
51320;PMS5003;38732;49.556;6.286;2023-02-28T06:48:53;10.50;6.75;3.00
51320;PMS5003;38732;49.556;6.286;2023-02-28T06:51:21;5.00;5.00;1.00
51320;PMS5003;38732;49.556;6.286;2023-02-28T06:53:50;8.50;6.75;3.00
51320;PMS5003;38732;49.556;6.286;2023-02-28T06:56:19;9.00;4.00;3.00
51320;PMS5003;38732;49.556;6.286;2023-02-28T06:58:48;4.50;3.00;1.00
51320;PMS5003;38732;49.556;6.286;2023-02-28T07:01:18;8.20;6.60;2.60
51320;PMS5003;38732;49.556;6.286;2023-02-28T07:03:46;9.25;4.50;3.00
51320;PMS5003;38732;49.556;6.286;2023-02-28T07:06:15;7.00;5.50;3.00
51320;PMS5003;38732;49.556;6.286;2023-02-28T07:08:43;9.00;6.00;4.50
51320;PMS5003;38732;49.556;6.286;2023-02-28T07:11:11;7.00;6.00;3.00
51320;PMS5003;38732;49.556;6.286;2023-02-28T07:13:39;4.50;3.00;1.00
51320;PMS5003;38732;49.556;6.286;2023-02-28T07:16:09;6.00;4.00;3.00
51320;PMS5003;38732;49.556;6.286;2023-02-28T07:18:39;6.20;3.80;1.00
51320;PMS5003;38732;49.556;6.286;2023-02-28T07:21:08;9.00;6.50;3.25
51320;PMS5003;38732;49.556;6.286;2023-02-28T07:23:37;12.40;6.00;3.00
51320;PMS5003;38732;49.556;6.286;2023-02-28T07:26:07;6.60;4.00;3.00
51320;PMS5003;38732;49.556;6.286;2023-02-28T07:28:39;4.00;4.00;3.00
51320;PMS5003;38732;49.556;6.286;2023-02-28T07:31:07;5.00;4.50;3.00
51320;PMS5003;38732;49.556;6.286;2023-02-28T07:33:36;5.00;5.00;2.00
51320;PMS5003;38732;49.556;6.286;2023-02-28T07:36:09;6.50;4.00;3.00
51320;PMS5003;38732;49.556;6.286;2023-02-28T07:38:38;10.00;6.60;3.80
51320;PMS5003;38732;49.556;6.286;2023-02-28T07:41:06;11.00;6.50;3.00
51320;PMS5003;38732;49.556;6.286;2023-02-28T07:43:35;8.00;3.00;1.00
51320;PMS5003;38732;49.556;6.286;2023-02-28T07:46:05;6.25;1.50;0.00
51320;PMS5003;38732;49.556;6.286;2023-02-28T07:48:38;10.40;5.20;3.40
51320;PMS5003;38732;49.556;6.286;2023-02-28T07:51:06;7.50;4.50;3.00
51320;PMS5003;38732;49.556;6.286;2023-02-28T07:53:34;14.50;9.50;6.00
51320;PMS5003;38732;49.556;6.286;2023-02-28T07:56:03;4.50;4.50;2.00
51320;PMS5003;38732;49.556;6.286;2023-02-28T07:58:31;5.00;4.50;3.00
51320;PMS5003;38732;49.556;6.286;2023-02-28T08:01:09;5.00;4.00;3.00
51320;PMS5003;38732;49.556;6.286;2023-02-28T08:03:39;4.00;4.00;3.00
51320;PMS5003;38732;49.556;6.286;2023-02-28T08:06:08;9.00;4.00;3.00
51320;PMS5003;38732;49.556;6.286;2023-02-28T08:08:44;4.80;4.80;1.00
51320;PMS5003;38732;49.556;6.286;2023-02-28T08:11:12;4.00;3.25;3.00
51320;PMS5003;38732;49.556;6.286;2023-02-28T08:13:41;15.50;15.50;9.50
51320;PMS5003;38732;49.556;6.286;2023-02-28T08:16:10;7.50;6.50;3.00
51320;PMS5003;38732;49.556;6.286;2023-02-28T08:18:39;8.40;5.20;2.40
51320;PMS5003;38732;49.556;6.286;2023-02-28T08:21:08;8.50;4.50;2.00
51320;PMS5003;38732;49.556;6.286;2023-02-28T08:23:37;14.20;11.40;7.60
51320;PMS5003;38732;49.556;6.286;2023-02-28T08:26:06;7.50;7.50;4.00
51320;PMS5003;38732;49.556;6.286;2023-02-28T08:28:34;3.00;3.00;1.00
51320;PMS5003;38732;49.556;6.286;2023-02-28T08:31:08;8.25;5.50;3.00
51320;PMS5003;38732;49.556;6.286;2023-02-28T08:33:38;1.00;0.40;0.00
51320;PMS5003;38732;49.556;6.286;2023-02-28T08:36:07;6.00;5.50;3.00
51320;PMS5003;38732;49.556;6.286;2023-02-28T08:38:36;8.20;3.40;1.00
51320;PMS5003;38732;49.556;6.286;2023-02-28T08:41:06;6.20;6.20;3.00
51320;PMS5003;38732;49.556;6.286;2023-02-28T08:43:35;7.40;7.40;3.40
51320;PMS5003;38732;49.556;6.286;2023-02-28T08:46:04;4.00;4.00;1.00
51320;PMS5003;38732;49.556;6.286;2023-02-28T08:48:33;6.50;5.50;1.00
51320;PMS5003;38732;49.556;6.286;2023-02-28T08:51:04;3.20;3.00;3.00
51320;PMS5003;38732;49.556;6.286;2023-02-28T08:53:35;6.40;4.80;3.00
51320;PMS5003;38732;49.556;6.286;2023-02-28T08:56:08;4.00;4.00;3.00
51320;PMS5003;38732;49.556;6.286;2023-02-28T08:58:40;5.60;5.60;3.00
51320;PMS5003;38732;49.556;6.286;2023-02-28T09:01:10;2.50;2.50;0.00
51320;PMS5003;38732;49.556;6.286;2023-02-28T09:03:49;16.80;16.80;11.60
51320;PMS5003;38732;49.556;6.286;2023-02-28T09:06:19;6.20;4.80;3.00
51320;PMS5003;38732;49.556;6.286;2023-02-28T09:08:49;6.00;4.80;3.00
51320;PMS5003;38732;49.556;6.286;2023-02-28T09:11:18;6.50;4.00;3.00
51320;PMS5003;38732;49.556;6.286;2023-02-28T09:13:46;6.50;3.75;3.00
51320;PMS5003;38732;49.556;6.286;2023-02-28T09:16:15;6.75;6.00;3.25
51320;PMS5003;38732;49.556;6.286;2023-02-28T09:18:44;6.20;5.20;3.00
51320;PMS5003;38732;49.556;6.286;2023-02-28T09:21:14;6.00;4.00;3.00
51320;PMS5003;38732;49.556;6.286;2023-02-28T09:23:45;5.60;5.60;3.00
51320;PMS5003;38732;49.556;6.286;2023-02-28T09:26:19;6.60;6.20;1.40
51320;PMS5003;38732;49.556;6.286;2023-02-28T09:28:52;1.00;0.00;0.00
51320;PMS5003;38732;49.556;6.286;2023-02-28T09:31:23;14.00;12.20;8.20
51320;PMS5003;38732;49.556;6.286;2023-02-28T09:33:53;6.60;6.00;3.00
51320;PMS5003;38732;49.556;6.286;2023-02-28T09:36:23;5.00;4.20;2.60
51320;PMS5003;38732;49.556;6.286;2023-02-28T09:38:52;6.80;4.80;3.00
51320;PMS5003;38732;49.556;6.286;2023-02-28T09:41:24;9.50;6.00;3.75
51320;PMS5003;38732;49.556;6.286;2023-02-28T09:43:58;7.60;6.00;4.40
51320;PMS5003;38732;49.556;6.286;2023-02-28T09:46:32;3.20;2.60;1.40
51320;PMS5003;38732;49.556;6.286;2023-02-28T09:49:06;7.60;4.00;3.00
51320;PMS5003;38732;49.556;6.286;2023-02-28T09:54:18;6.00;6.00;3.00
51320;PMS5003;38732;49.556;6.286;2023-02-28T09:56:50;6.60;4.00;1.40
51320;PMS5003;38732;49.556;6.286;2023-02-28T10:03:02;21.00;15.20;10.80
51320;PMS5003;38732;49.556;6.286;2023-02-28T10:05:11;8.40;8.20;4.00
51320;PMS5003;38732;49.556;6.286;2023-02-28T10:10:44;12.00;7.00;4.00
51320;PMS5003;38732;49.556;6.286;2023-02-28T10:13:25;13.60;12.60;10.00
51320;PMS5003;38732;49.556;6.286;2023-02-28T10:16:16;20.80;13.60;8.20
51320;PMS5003;38732;49.556;6.286;2023-02-28T10:18:50;9.20;7.20;4.00
51320;PMS5003;38732;49.556;6.286;2023-02-28T10:21:25;10.20;9.80;6.40
51320;PMS5003;38732;49.556;6.286;2023-02-28T10:24:01;10.80;9.00;5.60
51320;PMS5003;38732;49.556;6.286;2023-02-28T10:26:50;11.20;8.80;4.80
51320;PMS5003;38732;49.556;6.286;2023-02-28T10:29:23;15.40;12.80;10.00
51320;PMS5003;38732;49.556;6.286;2023-02-28T10:31:52;13.25;13.25;8.00
51320;PMS5003;38732;49.556;6.286;2023-02-28T10:34:20;11.00;11.00;6.50
51320;PMS5003;38732;49.556;6.286;2023-02-28T10:36:48;14.50;14.00;9.75
51320;PMS5003;38732;49.556;6.286;2023-02-28T10:39:34;17.80;15.00;9.20
51320;PMS5003;38732;49.556;6.286;2023-02-28T10:42:04;14.00;11.60;7.80
51320;PMS5003;38732;49.556;6.286;2023-02-28T10:44:33;15.00;12.40;7.00
51320;PMS5003;38732;49.556;6.286;2023-02-28T10:47:01;11.00;10.00;7.00
51320;PMS5003;38732;49.556;6.286;2023-02-28T10:49:29;14.25;11.50;8.00
51320;PMS5003;38732;49.556;6.286;2023-02-28T10:51:58;16.50;14.25;9.00
51320;PMS5003;38732;49.556;6.286;2023-02-28T10:54:35;13.00;12.00;9.00
51320;PMS5003;38732;49.556;6.286;2023-02-28T10:57:05;15.80;11.20;8.00
51320;PMS5003;38732;49.556;6.286;2023-02-28T10:59:44;18.20;14.20;8.00
51320;PMS5003;38732;49.556;6.286;2023-02-28T11:05:02;14.40;14.40;9.00
51320;PMS5003;38732;49.556;6.286;2023-02-28T11:07:56;14.40;14.40;8.00
51320;PMS5003;38732;49.556;6.286;2023-02-28T11:10:30;7.80;7.80;5.40
51320;PMS5003;38732;49.556;6.286;2023-02-28T11:13:00;16.20;15.20;10.20
51320;PMS5003;38732;49.556;6.286;2023-02-28T11:15:33;15.40;12.00;11.00
51320;PMS5003;38732;49.556;6.286;2023-02-28T11:18:36;11.80;11.80;8.00
51320;PMS5003;38732;49.556;6.286;2023-02-28T11:20:59;18.60;14.40;8.60
51320;PMS5003;38732;49.556;6.286;2023-02-28T11:23:30;14.60;14.60;9.40
51320;PMS5003;38732;49.556;6.286;2023-02-28T11:26:02;14.60;11.80;8.80
51320;PMS5003;38732;49.556;6.286;2023-02-28T11:28:32;13.20;12.00;7.80
51320;PMS5003;38732;49.556;6.286;2023-02-28T11:36:10;15.40;13.60;8.40
51320;PMS5003;38732;49.556;6.286;2023-02-28T11:38:39;20.00;13.00;8.40
51320;PMS5003;38732;49.556;6.286;2023-02-28T11:43:53;19.40;14.80;9.00
51320;PMS5003;38732;49.556;6.286;2023-02-28T11:46:35;16.20;16.20;10.00
51320;PMS5003;38732;49.556;6.286;2023-02-28T11:49:25;12.00;12.00;8.00
51320;PMS5003;38732;49.556;6.286;2023-02-28T11:57:32;17.40;15.60;10.00
51320;PMS5003;38732;49.556;6.286;2023-02-28T12:00:27;21.80;17.40;10.00
51320;PMS5003;38732;49.556;6.286;2023-02-28T12:19:29;9.80;9.80;7.40
51320;PMS5003;38732;49.556;6.286;2023-02-28T12:27:35;18.40;14.20;9.00
51320;PMS5003;38732;49.556;6.286;2023-02-28T12:33:01;17.20;16.40;10.00
51320;PMS5003;38732;49.556;6.286;2023-02-28T12:35:49;19.40;16.60;9.00
51320;PMS5003;38732;49.556;6.286;2023-02-28T12:38:22;17.00;17.00;10.00
51320;PMS5003;38732;49.556;6.286;2023-02-28T12:40:56;16.20;13.60;9.60
51320;PMS5003;38732;49.556;6.286;2023-02-28T12:43:33;18.60;15.40;9.80
51320;PMS5003;38732;49.556;6.286;2023-02-28T12:48:52;15.80;15.80;12.00
51320;PMS5003;38732;49.556;6.286;2023-02-28T12:51:24;16.60;15.60;12.80
51320;PMS5003;38732;49.556;6.286;2023-02-28T12:59:26;17.20;14.00;9.60
51320;PMS5003;38732;49.556;6.286;2023-02-28T13:10:45;5.00;3.00;0.80
51320;PMS5003;38732;49.556;6.286;2023-02-28T13:13:16;16.80;15.20;8.00
51320;PMS5003;38732;49.556;6.286;2023-02-28T13:15:57;17.60;14.40;9.20
51320;PMS5003;38732;49.556;6.286;2023-02-28T13:18:31;14.80;11.80;7.40
51320;PMS5003;38732;49.556;6.286;2023-02-28T13:24:01;18.60;18.20;9.60
51320;PMS5003;38732;49.556;6.286;2023-02-28T13:34:30;16.00;14.80;9.80
51320;PMS5003;38732;49.556;6.286;2023-02-28T13:39:46;18.00;17.00;10.00
51320;PMS5003;38732;49.556;6.286;2023-02-28T13:47:36;22.40;18.80;12.00
51320;PMS5003;38732;49.556;6.286;2023-02-28T13:58:16;15.80;11.20;7.20
51320;PMS5003;38732;49.556;6.286;2023-02-28T14:06:31;16.25;15.00;10.50
51320;PMS5003;38732;49.556;6.286;2023-02-28T14:20:54;19.20;15.80;10.00
51320;PMS5003;38732;49.556;6.286;2023-02-28T14:26:10;16.80;15.20;10.40
51320;PMS5003;38732;49.556;6.286;2023-02-28T14:31:29;18.80;18.00;11.00
51320;PMS5003;38732;49.556;6.286;2023-02-28T14:34:17;19.60;14.20;9.40
51320;PMS5003;38732;49.556;6.286;2023-02-28T14:37:05;15.80;13.00;7.20
51320;PMS5003;38732;49.556;6.286;2023-02-28T14:39:33;18.00;17.00;11.25
51320;PMS5003;38732;49.556;6.286;2023-02-28T14:42:02;15.50;11.25;6.00
51320;PMS5003;38732;49.556;6.286;2023-02-28T14:44:30;13.25;13.25;7.25
51320;PMS5003;38732;49.556;6.286;2023-02-28T14:46:59;16.75;16.75;9.00
51320;PMS5003;38732;49.556;6.286;2023-02-28T14:49:30;18.80;15.40;9.80
51320;PMS5003;38732;49.556;6.286;2023-02-28T14:52:06;17.20;16.40;9.80
51320;PMS5003;38732;49.556;6.286;2023-02-28T14:54:40;15.40;14.20;8.60
51320;PMS5003;38732;49.556;6.286;2023-02-28T14:57:23;17.80;17.80;12.00
51320;PMS5003;38732;49.556;6.286;2023-02-28T15:02:30;17.40;16.00;10.60
51320;PMS5003;38732;49.556;6.286;2023-02-28T15:07:42;19.00;15.60;10.60
51320;PMS5003;38732;49.556;6.286;2023-02-28T15:10:24;18.20;16.20;10.40
51320;PMS5003;38732;49.556;6.286;2023-02-28T15:15:47;19.60;17.20;11.80
51320;PMS5003;38732;49.556;6.286;2023-02-28T15:18:16;17.00;16.40;10.80
51320;PMS5003;38732;49.556;6.286;2023-02-28T15:20:55;21.40;16.80;10.00
51320;PMS5003;38732;49.556;6.286;2023-02-28T15:23:27;14.00;11.60;9.00
51320;PMS5003;38732;49.556;6.286;2023-02-28T15:25:57;16.60;16.60;11.40
51320;PMS5003;38732;49.556;6.286;2023-02-28T15:28:27;19.20;16.00;10.20
51320;PMS5003;38732;49.556;6.286;2023-02-28T15:31:00;21.80;16.80;9.20
51320;PMS5003;38732;49.556;6.286;2023-02-28T15:33:31;22.20;19.80;13.00
51320;PMS5003;38732;49.556;6.286;2023-02-28T15:36:11;18.00;18.00;11.40
51320;PMS5003;38732;49.556;6.286;2023-02-28T15:38:43;16.00;15.60;10.20
51320;PMS5003;38732;49.556;6.286;2023-02-28T15:44:27;18.80;16.80;13.20
51320;PMS5003;38732;49.556;6.286;2023-02-28T15:49:50;17.20;13.00;10.00
51320;PMS5003;38732;49.556;6.286;2023-02-28T15:55:08;17.80;17.20;11.40
51320;PMS5003;38732;49.556;6.286;2023-02-28T15:57:43;17.80;15.00;10.00
51320;PMS5003;38732;49.556;6.286;2023-02-28T16:00:19;17.80;15.20;10.20
51320;PMS5003;38732;49.556;6.286;2023-02-28T16:02:51;13.40;13.40;9.00
51320;PMS5003;38732;49.556;6.286;2023-02-28T16:05:26;18.50;16.00;10.00
51320;PMS5003;38732;49.556;6.286;2023-02-28T16:07:58;22.20;21.00;13.00
51320;PMS5003;38732;49.556;6.286;2023-02-28T16:10:28;17.40;14.80;9.80
51320;PMS5003;38732;49.556;6.286;2023-02-28T16:12:57;18.40;17.40;12.00
51320;PMS5003;38732;49.556;6.286;2023-02-28T16:15:27;19.00;18.00;10.25
51320;PMS5003;38732;49.556;6.286;2023-02-28T16:17:58;16.40;14.00;9.40
51320;PMS5003;38732;49.556;6.286;2023-02-28T16:20:28;17.00;17.00;10.50
51320;PMS5003;38732;49.556;6.286;2023-02-28T16:22:59;15.60;15.60;10.40
51320;PMS5003;38732;49.556;6.286;2023-02-28T16:25:38;18.00;18.00;12.00
51320;PMS5003;38732;49.556;6.286;2023-02-28T16:28:08;16.60;15.60;10.60
51320;PMS5003;38732;49.556;6.286;2023-02-28T16:30:45;13.20;12.00;8.00
51320;PMS5003;38732;49.556;6.286;2023-02-28T16:33:14;18.50;16.25;12.00
51320;PMS5003;38732;49.556;6.286;2023-02-28T16:35:42;16.25;16.00;9.00
51320;PMS5003;38732;49.556;6.286;2023-02-28T16:38:11;25.00;21.75;11.50
51320;PMS5003;38732;49.556;6.286;2023-02-28T16:40:39;19.00;16.00;8.25
51320;PMS5003;38732;49.556;6.286;2023-02-28T16:43:09;20.75;17.00;9.00
51320;PMS5003;38732;49.556;6.286;2023-02-28T16:45:44;23.40;18.00;11.40
51320;PMS5003;38732;49.556;6.286;2023-02-28T16:48:14;18.40;15.60;11.00
51320;PMS5003;38732;49.556;6.286;2023-02-28T16:50:43;24.40;21.00;11.60
51320;PMS5003;38732;49.556;6.286;2023-02-28T16:53:12;21.25;21.25;12.75
51320;PMS5003;38732;49.556;6.286;2023-02-28T16:55:40;24.75;19.25;11.75
51320;PMS5003;38732;49.556;6.286;2023-02-28T16:58:11;17.50;16.00;9.00
51320;PMS5003;38732;49.556;6.286;2023-02-28T17:00:43;21.00;19.00;11.80
51320;PMS5003;38732;49.556;6.286;2023-02-28T17:03:25;17.25;16.00;10.50
51320;PMS5003;38732;49.556;6.286;2023-02-28T17:05:55;22.20;17.60;10.60
51320;PMS5003;38732;49.556;6.286;2023-02-28T17:08:23;14.25;13.50;8.25
51320;PMS5003;38732;49.556;6.286;2023-02-28T17:10:51;22.25;22.00;11.25
51320;PMS5003;38732;49.556;6.286;2023-02-28T17:13:20;27.00;18.00;11.50
51320;PMS5003;38732;49.556;6.286;2023-02-28T17:15:48;20.00;16.25;11.25
51320;PMS5003;38732;49.556;6.286;2023-02-28T17:18:18;20.50;18.50;11.25
51320;PMS5003;38732;49.556;6.286;2023-02-28T17:20:48;21.40;15.00;9.80
51320;PMS5003;38732;49.556;6.286;2023-02-28T17:23:16;23.50;22.25;13.25
51320;PMS5003;38732;49.556;6.286;2023-02-28T17:25:45;21.25;20.00;12.25